createdAt,value
2018-05-29T00:01:26.658Z,28.30
2018-05-29T00:03:30.729Z,20.50
2018-05-29T00:05:34.102Z,16.77
2018-05-29T00:07:37.450Z,24.00
2018-05-29T00:09:41.534Z,22.37
2018-05-29T00:11:44.837Z,17.43
2018-05-29T00:13:48.179Z,18.30
2018-05-29T00:15:51.501Z,19.17
2018-05-29T00:17:54.792Z,17.80
2018-05-29T00:19:58.127Z,20.17
2018-05-29T00:22:02.207Z,23.87
2018-05-29T00:24:05.611Z,17.57
2018-05-29T00:26:08.956Z,19.73
2018-05-29T00:28:12.278Z,21.60
2018-05-29T00:30:15.622Z,20.07
2018-05-29T00:32:18.950Z,15.90
2018-05-29T00:34:22.614Z,17.83
2018-05-29T00:36:25.947Z,18.57
2018-05-29T00:38:29.250Z,19.63
2018-05-29T00:40:32.569Z,18.60
2018-05-29T00:42:35.915Z,18.70
2018-05-29T00:44:39.290Z,19.10
2018-05-29T00:46:42.594Z,17.80
2018-05-29T00:48:46.835Z,20.50
2018-05-29T00:50:50.181Z,23.20
2018-05-29T00:52:53.523Z,22.00
2018-05-29T00:55:14.319Z,22.00
2018-05-29T00:57:17.699Z,19.13
2018-05-29T00:59:21.007Z,21.53
2018-05-29T01:01:24.302Z,25.43
2018-05-29T01:03:27.660Z,20.83
2018-05-29T01:05:30.981Z,26.90
2018-05-29T01:07:34.330Z,17.87
2018-05-29T01:09:37.739Z,23.97
2018-05-29T01:11:41.070Z,20.47
2018-05-29T01:13:44.389Z,21.03
2018-05-29T01:15:48.485Z,19.07
2018-05-29T01:17:52.709Z,21.83
2018-05-29T01:19:56.815Z,25.53
2018-05-29T01:22:00.970Z,21.70
2018-05-29T01:24:04.336Z,21.50
2018-05-29T01:26:07.648Z,22.83
2018-05-29T01:28:11.074Z,25.90
2018-05-29T01:30:14.609Z,21.67
2018-05-29T01:32:17.990Z,20.20
2018-05-29T01:34:21.352Z,23.70
2018-05-29T01:36:24.684Z,21.57
2018-05-29T01:38:28.060Z,21.50
2018-05-29T01:40:32.158Z,23.10
2018-05-29T01:42:35.552Z,23.93
2018-05-29T01:44:38.904Z,25.20
2018-05-29T01:46:42.269Z,22.30
2018-05-29T01:48:45.601Z,20.87
2018-05-29T01:50:48.945Z,25.53
2018-05-29T01:52:52.385Z,31.93
2018-05-29T01:54:55.729Z,23.10
2018-05-29T01:56:59.795Z,21.40
2018-05-29T01:59:03.176Z,26.63
2018-05-29T02:01:06.615Z,22.93
2018-05-29T02:03:10.727Z,25.93
2018-05-29T02:05:14.885Z,27.67
2018-05-29T02:07:18.246Z,22.17
2018-05-29T02:09:21.639Z,23.97
2018-05-29T02:11:25.032Z,24.90
2018-05-29T02:13:28.392Z,23.17
2018-05-29T02:15:31.758Z,20.60
2018-05-29T02:17:35.144Z,21.10
2018-05-29T02:19:38.487Z,26.23
2018-05-29T02:21:42.627Z,21.97
2018-05-29T02:23:46.040Z,29.07
2018-05-29T02:25:49.439Z,33.73
2018-05-29T02:27:52.746Z,26.13
2018-05-29T02:29:56.157Z,22.37
2018-05-29T02:31:59.494Z,22.73
2018-05-29T02:34:02.896Z,23.40
2018-05-29T02:36:06.314Z,21.47
2018-05-29T02:38:09.640Z,27.20
2018-05-29T02:40:12.989Z,23.47
2018-05-29T02:42:16.429Z,24.47
2018-05-29T02:44:19.792Z,23.40
2018-05-29T02:46:23.153Z,21.30
2018-05-29T02:48:26.600Z,23.83
2018-05-29T02:50:30.028Z,25.23
2018-05-29T02:52:33.354Z,25.87
2018-05-29T02:54:36.718Z,23.93
2018-05-29T02:56:40.103Z,22.73
2018-05-29T02:58:43.453Z,29.27
2018-05-29T03:00:46.829Z,24.63
2018-05-29T03:02:50.202Z,22.50
2018-05-29T03:04:53.522Z,25.63
2018-05-29T03:06:56.922Z,22.30
2018-05-29T03:09:00.300Z,27.63
2018-05-29T03:11:03.622Z,22.10
2018-05-29T03:13:06.976Z,23.40
2018-05-29T03:15:10.354Z,24.60
2018-05-29T03:17:13.729Z,24.63
2018-05-29T03:19:17.151Z,23.30
2018-05-29T03:21:20.565Z,22.27
2018-05-29T03:23:23.904Z,28.40
2018-05-29T03:25:27.250Z,30.67
2018-05-29T03:27:30.675Z,25.57
2018-05-29T03:29:34.081Z,24.57
2018-05-29T03:31:37.437Z,24.13
2018-05-29T03:33:40.779Z,25.57
2018-05-29T03:35:44.085Z,29.77
2018-05-29T03:37:47.492Z,26.93
2018-05-29T03:39:50.830Z,29.37
2018-05-29T03:41:54.183Z,24.20
2018-05-29T03:43:57.534Z,28.97
2018-05-29T03:46:00.869Z,25.57
2018-05-29T03:48:04.247Z,25.73
2018-05-29T03:50:07.652Z,28.23
2018-05-29T03:52:11.010Z,24.57
2018-05-29T03:54:14.428Z,24.93
2018-05-29T03:56:17.778Z,26.70
2018-05-29T03:58:21.125Z,24.80
2018-05-29T04:00:24.522Z,23.37
2018-05-29T04:02:27.930Z,48.13
2018-05-29T04:04:31.324Z,25.23
2018-05-29T04:06:34.685Z,28.43
2018-05-29T04:08:38.091Z,23.67
2018-05-29T04:10:41.491Z,29.80
2018-05-29T04:12:44.847Z,29.37
2018-05-29T04:14:48.239Z,30.17
2018-05-29T04:16:51.619Z,27.07
2018-05-29T04:18:55.008Z,27.83
2018-05-29T04:20:58.457Z,25.07
2018-05-29T04:23:01.957Z,25.57
2018-05-29T04:25:05.333Z,26.97
2018-05-29T04:27:08.729Z,25.67
2018-05-29T04:29:12.141Z,24.80
2018-05-29T04:31:15.559Z,23.43
2018-05-29T04:33:19.715Z,26.70
2018-05-29T04:35:23.083Z,28.27
2018-05-29T04:37:26.410Z,32.03
2018-05-29T04:39:29.789Z,24.90
2018-05-29T04:41:33.202Z,22.20
2018-05-29T04:43:36.574Z,22.60
2018-05-29T04:45:39.951Z,24.97
2018-05-29T04:47:43.356Z,26.50
2018-05-29T04:49:46.714Z,25.40
2018-05-29T04:51:50.126Z,22.10
2018-05-29T04:53:53.489Z,24.83
2018-05-29T04:55:56.891Z,25.90
2018-05-29T04:58:00.501Z,41.73
2018-05-29T05:00:03.925Z,28.43
2018-05-29T05:02:08.677Z,26.70
2018-05-29T05:04:12.239Z,30.57
2018-05-29T05:06:19.325Z,28.27
2018-05-29T05:08:22.893Z,24.00
2018-05-29T05:10:26.394Z,26.03
2018-05-29T05:12:30.523Z,25.57
2018-05-29T05:14:35.554Z,24.43
2018-05-29T05:16:40.000Z,26.30
2018-05-29T05:18:44.335Z,24.87
2018-05-29T05:20:49.424Z,23.20
2018-05-29T05:22:52.965Z,24.47
2018-05-29T05:24:57.332Z,25.70
2018-05-29T05:27:01.438Z,23.23
2018-05-29T05:29:05.383Z,22.13
2018-05-29T05:31:11.499Z,24.77
2018-05-29T05:33:15.446Z,25.97
2018-05-29T05:35:22.625Z,22.87
2018-05-29T05:37:27.975Z,24.90
2018-05-29T05:39:31.950Z,21.50
2018-05-29T05:41:36.575Z,22.17
2018-05-29T05:43:42.050Z,21.33
2018-05-29T05:45:46.730Z,30.40
2018-05-29T05:47:50.205Z,22.20
2018-05-29T05:49:55.068Z,24.83
2018-05-29T05:51:59.721Z,25.63
2018-05-29T05:54:05.392Z,18.53
2018-05-29T05:56:09.802Z,22.30
2018-05-29T05:58:14.152Z,18.03
2018-05-29T06:00:17.562Z,19.07
2018-05-29T06:02:22.538Z,26.33
2018-05-29T06:04:27.473Z,18.13
2018-05-29T06:06:32.030Z,22.17
2018-05-29T06:08:35.432Z,18.20
2018-05-29T06:10:40.279Z,21.23
2018-05-29T06:12:44.578Z,18.47
2018-05-29T06:14:48.028Z,27.07
2018-05-29T06:16:51.690Z,18.70
2018-05-29T06:18:55.753Z,19.20
2018-05-29T06:21:00.775Z,14.80
2018-05-29T06:23:04.182Z,22.97
2018-05-29T06:25:07.570Z,14.90
2018-05-29T06:27:11.075Z,21.73
2018-05-29T06:29:15.085Z,22.40
2018-05-29T06:31:18.474Z,15.00
2018-05-29T06:33:22.726Z,18.20
2018-05-29T06:35:27.234Z,15.10
2018-05-29T06:37:30.596Z,14.23
2018-05-29T06:39:34.007Z,13.60
2018-05-29T06:41:38.351Z,17.23
2018-05-29T06:43:42.830Z,13.77
2018-05-29T06:45:49.821Z,22.60
2018-05-29T06:47:53.241Z,14.10
2018-05-29T06:49:56.907Z,19.13
2018-05-29T06:52:01.253Z,12.80
2018-05-29T06:54:04.693Z,12.77
2018-05-29T06:56:08.515Z,14.77
2018-05-29T06:58:12.678Z,11.10
2018-05-29T07:00:18.403Z,12.23
2018-05-29T07:02:24.630Z,10.17
2018-05-29T07:04:29.945Z,9.97
2018-05-29T07:06:35.999Z,9.47
2018-05-29T07:08:42.044Z,8.40
2018-05-29T07:10:45.783Z,9.27
2018-05-29T07:12:52.323Z,9.33
2018-05-29T07:14:56.684Z,9.43
2018-05-29T07:17:02.065Z,9.10
2018-05-29T07:19:06.313Z,18.43
2018-05-29T07:21:10.902Z,10.93
2018-05-29T07:23:16.780Z,12.00
2018-05-29T07:25:21.572Z,11.83
2018-05-29T07:27:26.424Z,9.97
2018-05-29T07:29:30.562Z,14.77
2018-05-29T07:31:37.314Z,8.53
2018-05-29T07:33:44.242Z,10.30
2018-05-29T07:35:53.414Z,9.33
2018-05-29T07:37:57.745Z,10.40
2018-05-29T07:40:02.453Z,8.87
2018-05-29T07:42:08.982Z,10.47
2018-05-29T07:44:15.206Z,10.07
2018-05-29T07:46:23.593Z,13.27
2018-05-29T07:48:32.047Z,8.37
2018-05-29T07:50:39.870Z,10.10
2018-05-29T07:52:46.310Z,12.00
2018-05-29T07:54:50.881Z,12.50
2018-05-29T07:56:56.674Z,10.10
2018-05-29T07:59:01.289Z,9.30
2018-05-29T08:01:06.332Z,9.30
2018-05-29T08:03:10.409Z,9.30
2018-05-29T08:05:15.419Z,13.53
2018-05-29T08:07:19.417Z,12.37
2018-05-29T08:09:24.073Z,8.70
2018-05-29T08:11:27.515Z,15.70
2018-05-29T08:13:32.395Z,8.70
2018-05-29T08:15:38.062Z,9.10
2018-05-29T08:17:42.095Z,10.63
2018-05-29T08:19:45.565Z,12.93
2018-05-29T08:21:49.875Z,11.77
2018-05-29T08:23:54.260Z,9.03
2018-05-29T08:26:02.260Z,9.30
2018-05-29T08:28:07.011Z,16.93
2018-05-29T08:30:12.202Z,9.03
2018-05-29T08:32:15.831Z,8.60
2018-05-29T08:34:19.510Z,10.87
2018-05-29T08:36:22.945Z,10.67
2018-05-29T08:38:27.316Z,11.17
2018-05-29T08:40:30.751Z,9.30
2018-05-29T08:42:35.175Z,17.87
2018-05-29T08:44:38.698Z,11.17
2018-05-29T08:46:42.107Z,10.90
2018-05-29T08:48:45.650Z,11.43
2018-05-29T08:50:50.541Z,8.60
2018-05-29T08:52:54.438Z,13.00
2018-05-29T08:54:58.917Z,12.23
2018-05-29T08:57:03.208Z,10.73
2018-05-29T08:59:06.976Z,9.63
2018-05-29T09:01:16.050Z,12.53
2018-05-29T09:03:22.140Z,10.20
2018-05-29T09:05:27.411Z,10.57
2018-05-29T09:07:30.976Z,9.70
2018-05-29T09:09:35.513Z,9.80
2018-05-29T09:11:39.821Z,9.67
2018-05-29T09:13:43.311Z,10.33
2018-05-29T09:15:47.022Z,19.17
2018-05-29T09:17:50.752Z,12.30
2018-05-29T09:19:56.381Z,9.83
2018-05-29T09:21:59.807Z,11.87
2018-05-29T09:24:03.289Z,10.00
2018-05-29T09:26:12.460Z,9.97
2018-05-29T09:28:16.364Z,10.67
2018-05-29T09:30:22.507Z,9.10
2018-05-29T09:32:26.107Z,12.00
2018-05-29T09:34:30.553Z,11.20
2018-05-29T09:36:35.898Z,11.80
2018-05-29T09:38:40.494Z,11.10
2018-05-29T09:40:44.162Z,9.17
2018-05-29T09:42:47.798Z,8.50
2018-05-29T09:44:51.884Z,10.83
2018-05-29T09:46:55.308Z,14.50
2018-05-29T09:49:07.610Z,13.60
2018-05-29T09:51:12.182Z,12.03
2018-05-29T09:53:15.716Z,10.33
2018-05-29T09:55:20.360Z,10.53
2018-05-29T09:57:24.744Z,11.07
2018-05-29T09:59:28.253Z,20.63
2018-05-29T10:01:35.320Z,14.57
2018-05-29T10:03:39.113Z,11.40
2018-05-29T10:05:44.857Z,9.77
2018-05-29T10:07:48.413Z,11.77
2018-05-29T10:09:52.634Z,13.20
2018-05-29T10:11:56.209Z,12.87
2018-05-29T10:14:00.454Z,9.33
2018-05-29T10:16:03.812Z,18.30
2018-05-29T10:18:07.509Z,16.83
2018-05-29T10:20:11.944Z,17.13
2018-05-29T10:22:16.534Z,16.03
2018-05-29T10:24:20.860Z,12.53
2018-05-29T10:26:25.338Z,10.70
2018-05-29T10:28:30.030Z,11.07
2018-05-29T10:30:34.617Z,14.60
2018-05-29T10:32:38.918Z,12.03
2018-05-29T10:34:43.423Z,16.00
2018-05-29T10:36:47.511Z,12.73
2018-05-29T10:38:50.991Z,15.03
2018-05-29T10:40:55.693Z,18.80
2018-05-29T10:42:59.194Z,16.90
2018-05-29T10:45:03.162Z,11.33
2018-05-29T10:47:07.226Z,19.30
2018-05-29T10:49:11.369Z,16.33
2018-05-29T10:51:15.398Z,11.33
2018-05-29T10:53:19.010Z,10.90
2018-05-29T10:55:22.394Z,11.80
2018-05-29T10:57:28.190Z,11.23
2018-05-29T10:59:33.040Z,10.03
2018-05-29T11:01:36.722Z,13.90
2018-05-29T11:03:42.249Z,11.17
2018-05-29T11:05:45.665Z,15.27
2018-05-29T11:07:51.983Z,10.60
2018-05-29T11:09:56.970Z,13.07
2018-05-29T11:12:00.618Z,13.17
2018-05-29T11:14:04.485Z,12.47
2018-05-29T11:16:08.487Z,17.67
2018-05-29T11:18:12.859Z,12.67
2018-05-29T11:20:17.671Z,15.70
2018-05-29T11:22:23.213Z,13.27
2018-05-29T11:24:28.489Z,11.57
2018-05-29T11:26:33.744Z,9.70
2018-05-29T11:28:39.737Z,10.77
2018-05-29T11:30:43.922Z,12.80
2018-05-29T11:32:48.142Z,12.30
2018-05-29T11:34:55.194Z,16.30
2018-05-29T11:36:59.520Z,13.60
2018-05-29T11:39:03.762Z,11.27
2018-05-29T11:41:07.275Z,12.97
2018-05-29T11:43:11.648Z,16.70
2018-05-29T11:45:16.413Z,18.10
2018-05-29T11:47:20.321Z,15.07
2018-05-29T11:49:25.022Z,19.20
2018-05-29T11:51:28.516Z,15.80
2018-05-29T11:53:33.405Z,24.00
2018-05-29T11:55:39.924Z,19.33
2018-05-29T11:57:44.538Z,14.20
2018-05-29T11:59:52.644Z,12.77
2018-05-29T12:01:56.100Z,27.37
2018-05-29T12:04:01.219Z,16.50
2018-05-29T12:06:06.198Z,14.57
2018-05-29T12:08:10.420Z,14.77
2018-05-29T12:10:13.861Z,14.17
2018-05-29T12:12:27.649Z,12.63
2018-05-29T12:14:31.958Z,15.20
2018-05-29T12:16:36.398Z,16.90
2018-05-29T12:18:40.110Z,14.80
2018-05-29T12:20:43.514Z,13.60
2018-05-29T12:22:50.996Z,14.83
2018-05-29T12:24:56.317Z,12.80
2018-05-29T12:27:00.164Z,16.97
2018-05-29T12:29:03.664Z,13.50
2018-05-29T12:31:07.109Z,18.37
2018-05-29T12:33:10.722Z,16.07
2018-05-29T12:35:14.458Z,16.23
2018-05-29T12:37:19.423Z,15.53
2018-05-29T12:39:25.324Z,16.47
2018-05-29T12:41:28.790Z,12.48
2018-05-29T12:43:33.573Z,14.63
2018-05-29T12:45:37.043Z,12.30
2018-05-29T12:47:41.386Z,16.02
2018-05-29T12:49:44.870Z,17.25
2018-05-29T12:51:49.126Z,20.70
2018-05-29T12:53:54.798Z,14.57
2018-05-29T12:56:02.318Z,16.60
2018-05-29T12:58:08.847Z,18.63
2018-05-29T13:00:14.763Z,14.50
2018-05-29T13:02:21.990Z,14.97
2018-05-29T13:04:26.203Z,14.40
2018-05-29T13:06:31.244Z,19.20
2018-05-29T13:08:35.148Z,19.90
2018-05-29T13:10:39.043Z,11.40
2018-05-29T13:12:43.808Z,17.93
2018-05-29T13:14:50.136Z,20.17
2018-05-29T13:16:59.566Z,13.93
2018-05-29T13:19:03.093Z,23.80
2018-05-29T13:21:13.611Z,13.03
2018-05-29T13:23:19.088Z,11.80
2018-05-29T13:25:26.451Z,15.67
2018-05-29T13:27:33.304Z,13.27
2018-05-29T13:29:44.982Z,16.27
2018-05-29T13:31:49.908Z,19.90
2018-05-29T13:33:55.045Z,20.50
2018-05-29T13:36:00.432Z,16.63
2018-05-29T13:38:09.445Z,17.17
2018-05-29T13:40:16.127Z,16.20
2018-05-29T13:42:29.352Z,14.63
2018-05-29T13:44:32.904Z,16.60
2018-05-29T13:46:36.330Z,26.93
2018-05-29T13:48:40.474Z,13.13
2018-05-29T13:50:46.036Z,17.37
2018-05-29T13:52:51.120Z,17.40
2018-05-29T13:54:55.924Z,18.43
2018-05-29T13:57:04.200Z,18.20
2018-05-29T13:59:07.720Z,14.20
2018-05-29T14:01:11.197Z,22.10
2018-05-29T14:03:16.893Z,15.90
2018-05-29T14:05:21.497Z,13.37
2018-05-29T14:07:26.116Z,14.60
2018-05-29T14:09:30.199Z,17.80
2018-05-29T14:11:35.255Z,15.87
2018-05-29T14:13:38.854Z,11.50
2018-05-29T14:15:42.565Z,18.67
2018-05-29T14:17:46.882Z,14.10
2018-05-29T14:19:53.150Z,17.53
2018-05-29T14:21:58.753Z,15.00
2018-05-29T14:26:17.996Z,48.83
2018-05-29T14:28:25.457Z,35.97
2018-05-29T14:30:32.878Z,61.60
2018-05-29T14:32:39.019Z,42.90
2018-05-29T14:34:46.809Z,46.13
2018-05-29T14:37:04.647Z,53.37
2018-05-29T14:39:14.429Z,67.00
2018-05-29T14:41:27.829Z,48.40
2018-05-29T14:43:40.757Z,40.47
2018-05-29T14:48:02.324Z,52.63
2018-05-29T14:50:11.389Z,45.03
2018-05-29T14:52:18.147Z,35.27
2018-05-29T14:54:28.112Z,32.80
2018-05-29T14:58:44.982Z,22.03
2018-05-29T15:08:55.123Z,12.50
2018-05-29T15:11:03.030Z,11.30
2018-05-29T15:13:09.433Z,11.87
2018-05-29T15:15:14.875Z,8.07
2018-05-29T15:17:26.610Z,12.87
2018-05-29T15:19:33.143Z,10.80
2018-05-29T15:21:37.533Z,7.27
2018-05-29T15:23:44.165Z,13.40
2018-05-29T15:25:48.333Z,9.37
2018-05-29T15:27:52.965Z,4.30
2018-05-29T15:29:58.530Z,8.27
2018-05-29T15:32:03.323Z,7.30
2018-05-29T15:34:10.438Z,9.20
2018-05-29T15:36:15.076Z,4.13
2018-05-29T15:38:18.800Z,13.43
2018-05-29T15:42:41.719Z,6.40
2018-05-29T15:44:45.654Z,9.47
2018-05-29T15:46:51.424Z,6.10
2018-05-29T15:48:56.026Z,7.10
2018-05-29T15:51:00.478Z,7.33
2018-05-29T15:53:03.991Z,0.50
2018-05-29T15:55:07.437Z,0.50
2018-05-29T15:57:10.847Z,0.50
2018-05-29T15:59:15.110Z,0.50
2018-05-29T16:01:18.678Z,0.50
2018-05-29T16:03:26.510Z,0.50
2018-05-29T16:05:33.679Z,0.50
2018-05-29T16:07:37.188Z,0.50
2018-05-29T16:09:40.811Z,0.50
2018-05-29T16:11:44.135Z,0.50
2018-05-29T16:13:47.576Z,0.50
2018-05-29T16:15:51.135Z,0.50
2018-05-29T16:17:54.854Z,0.50
2018-05-29T16:19:58.266Z,0.50
2018-05-29T16:22:02.548Z,0.50
2018-05-29T16:24:05.993Z,0.50
2018-05-29T16:26:09.489Z,0.50
2018-05-29T16:28:12.934Z,0.50
2018-05-29T16:30:18.971Z,0.50
2018-05-29T16:32:22.705Z,0.50
2018-05-29T16:34:26.077Z,0.70
2018-05-29T16:36:29.496Z,0.50
2018-05-29T16:38:32.919Z,0.50
2018-05-29T16:40:36.345Z,1.33
2018-05-29T16:42:39.658Z,0.50
2018-05-29T16:44:43.019Z,0.50
2018-05-29T16:46:46.443Z,0.50
2018-05-29T16:48:49.858Z,0.50
2018-05-29T16:50:53.351Z,0.50
2018-05-29T16:52:56.756Z,0.50
2018-05-29T16:55:00.249Z,0.50
2018-05-29T16:57:03.864Z,0.50
2018-05-29T16:59:08.087Z,0.50
2018-05-29T17:01:11.529Z,0.50
2018-05-29T17:03:14.890Z,0.50
2018-05-29T17:05:18.277Z,0.50
2018-05-29T17:07:21.729Z,0.50
2018-05-29T17:09:25.241Z,0.50
2018-05-29T17:11:28.711Z,0.50
2018-05-29T17:13:32.122Z,0.50
2018-05-29T17:15:35.496Z,0.50
2018-05-29T17:17:39.630Z,0.50
2018-05-29T17:19:43.019Z,0.50
2018-05-29T17:21:50.505Z,0.50
2018-05-29T17:23:53.989Z,0.50
2018-05-29T17:26:06.056Z,0.50
2018-05-29T17:28:10.176Z,0.50
2018-05-29T17:30:13.517Z,0.50
2018-05-29T17:32:16.945Z,0.50
2018-05-29T17:34:21.101Z,0.50
2018-05-29T17:36:24.541Z,0.50
2018-05-29T17:38:28.016Z,0.50
2018-05-29T17:40:31.537Z,0.50
2018-05-29T17:42:35.756Z,0.50
2018-05-29T17:44:39.852Z,0.50
2018-05-29T17:46:43.993Z,0.50
2018-05-29T17:48:47.556Z,0.50
2018-05-29T17:50:50.918Z,0.50
2018-05-29T17:52:54.594Z,0.50
2018-05-29T17:54:58.020Z,0.70
2018-05-29T17:57:01.429Z,0.50
2018-05-29T17:59:05.038Z,0.50
2018-05-29T18:01:09.370Z,0.50
2018-05-29T18:03:13.563Z,0.50
2018-05-29T18:05:17.708Z,3.13
2018-05-29T18:07:21.137Z,0.50
2018-05-29T18:09:24.638Z,0.63
2018-05-29T18:11:28.274Z,0.50
2018-05-29T18:13:32.853Z,0.60
2018-05-29T18:15:37.805Z,0.50
2018-05-29T18:17:41.329Z,0.50
2018-05-29T18:19:44.717Z,0.50
2018-05-29T18:21:49.224Z,0.50
2018-05-29T18:23:52.823Z,0.50
2018-05-29T18:25:57.728Z,0.50
2018-05-29T18:28:01.337Z,0.60
2018-05-29T18:30:04.993Z,3.33
2018-05-29T18:32:11.586Z,0.50
2018-05-29T18:34:22.711Z,0.50
2018-05-29T18:36:26.440Z,0.50
2018-05-29T18:38:30.048Z,0.50
2018-05-29T18:40:33.665Z,0.50
2018-05-29T18:42:37.204Z,1.43
2018-05-29T18:44:42.467Z,0.50
2018-05-29T18:46:46.013Z,0.50
2018-05-29T18:48:49.538Z,0.50
2018-05-29T18:50:53.770Z,0.50
2018-05-29T18:52:57.271Z,0.50
2018-05-29T18:55:00.854Z,0.50
2018-05-29T18:57:04.296Z,0.50
2018-05-29T18:59:07.674Z,0.50
2018-05-29T19:01:11.232Z,0.50
2018-05-29T19:03:14.758Z,0.50
2018-05-29T19:05:18.316Z,0.50
2018-05-29T19:07:21.693Z,3.17
2018-05-29T19:09:25.307Z,0.50
2018-05-29T19:11:30.183Z,14.07
2018-05-29T19:13:34.446Z,0.50
2018-05-29T19:15:37.859Z,0.53
2018-05-29T19:17:41.496Z,0.50
2018-05-29T19:19:45.226Z,0.50
2018-05-29T19:21:49.634Z,0.50
2018-05-29T19:23:53.571Z,0.50
2018-05-29T19:25:57.287Z,0.50
2018-05-29T19:28:00.791Z,0.50
2018-05-29T19:30:04.226Z,0.50
2018-05-29T19:32:07.742Z,0.50
2018-05-29T19:34:11.734Z,1.00
2018-05-29T19:36:16.905Z,0.50
2018-05-29T19:38:21.010Z,0.50
2018-05-29T19:40:25.221Z,0.50
2018-05-29T19:42:29.392Z,0.50
2018-05-29T19:44:33.248Z,0.50
2018-05-29T19:46:38.700Z,0.50
2018-05-29T19:48:42.463Z,0.50
2018-05-29T19:50:46.250Z,0.50
2018-05-29T19:52:49.918Z,0.50
2018-05-29T19:54:53.389Z,0.50
2018-05-29T19:56:56.971Z,0.50
2018-05-29T19:59:01.176Z,0.50
2018-05-29T20:01:05.390Z,0.50
2018-05-29T20:03:09.812Z,0.60
2018-05-29T20:05:15.629Z,0.50
2018-05-29T20:07:19.146Z,0.50
2018-05-29T20:09:25.922Z,5.50
2018-05-29T20:11:41.379Z,0.50
2018-05-29T20:24:23.059Z,0.50
2018-05-29T20:26:26.499Z,0.50
2018-05-29T20:28:30.176Z,0.50
2018-05-29T20:30:33.570Z,0.50
2018-05-29T20:32:36.926Z,0.57
2018-05-29T20:34:40.283Z,0.50
2018-05-29T20:36:43.788Z,0.50
2018-05-29T20:38:47.232Z,0.50
2018-05-29T20:40:50.591Z,0.50
2018-05-29T20:42:54.083Z,0.50
2018-05-29T20:44:57.540Z,0.50
2018-05-29T20:47:00.894Z,0.50
2018-05-29T20:49:04.704Z,0.50
2018-05-29T20:51:08.198Z,0.50
2018-05-29T20:53:11.702Z,0.50
2018-05-29T20:55:15.889Z,0.50
2018-05-29T20:57:19.218Z,0.50
2018-05-29T20:59:22.596Z,0.50
2018-05-29T21:01:26.766Z,0.50
2018-05-29T21:03:30.156Z,0.50
2018-05-29T21:05:33.594Z,0.50
2018-05-29T21:07:37.045Z,0.50
2018-05-29T21:09:40.585Z,0.50
2018-05-29T21:11:44.788Z,0.50
2018-05-29T21:13:48.266Z,0.80
2018-05-29T21:15:51.725Z,0.50
2018-05-29T21:17:55.277Z,0.50
2018-05-29T21:19:58.807Z,0.50
2018-05-29T21:22:02.373Z,0.50
2018-05-29T21:24:05.838Z,0.50
2018-05-29T21:26:09.279Z,0.50
2018-05-29T21:28:13.479Z,0.50
2018-05-29T21:30:17.553Z,0.50
2018-05-29T21:32:20.979Z,0.50
2018-05-29T21:34:24.367Z,0.50
2018-05-29T21:36:27.745Z,6.90
2018-05-29T21:38:31.193Z,0.50
2018-05-29T21:40:34.531Z,0.50
2018-05-29T21:42:37.888Z,0.50
2018-05-29T21:44:41.269Z,0.50
2018-05-29T21:46:44.683Z,0.50
2018-05-29T21:48:48.287Z,0.50
2018-05-29T21:50:51.687Z,0.50
2018-05-29T21:52:55.099Z,0.50
2018-05-29T21:54:58.437Z,0.50
2018-05-29T21:57:01.808Z,0.50
2018-05-29T21:59:05.476Z,0.60
2018-05-29T22:01:08.762Z,0.50
2018-05-29T22:03:12.109Z,0.50
2018-05-29T22:05:15.482Z,0.50
2018-05-29T22:07:19.606Z,0.50
2018-05-29T22:09:23.078Z,0.50
2018-05-29T22:11:26.417Z,0.50
2018-05-29T22:13:29.739Z,0.50
2018-05-29T22:15:33.159Z,0.50
2018-05-29T22:17:37.396Z,0.50
2018-05-29T22:19:40.707Z,0.50
2018-05-29T22:21:44.083Z,0.50
2018-05-29T22:23:47.395Z,0.50
2018-05-29T22:25:50.782Z,0.60
2018-05-29T22:27:54.111Z,0.50
2018-05-29T22:29:57.495Z,0.50
2018-05-29T22:32:00.864Z,0.50
2018-05-29T22:34:04.209Z,0.50
2018-05-29T22:36:07.565Z,0.50
2018-05-29T22:38:11.211Z,0.50
2018-05-29T22:40:15.318Z,0.50
2018-05-29T22:42:18.728Z,0.50
2018-05-29T22:44:22.053Z,0.50
2018-05-29T22:46:25.381Z,0.50
2018-05-29T22:48:29.638Z,0.50
2018-05-29T22:50:32.930Z,0.50
2018-05-29T22:52:36.307Z,0.50
2018-05-29T22:54:39.625Z,0.50
2018-05-29T22:56:43.126Z,0.50
2018-05-29T22:58:46.479Z,0.50
2018-05-29T23:00:50.554Z,0.50
2018-05-29T23:02:53.960Z,0.50
2018-05-29T23:04:58.499Z,0.50
2018-05-29T23:07:02.702Z,0.50
2018-05-29T23:09:06.796Z,0.50
2018-05-29T23:11:10.241Z,0.50
2018-05-29T23:13:14.393Z,0.50
2018-05-29T23:15:18.502Z,0.50
2018-05-29T23:17:21.880Z,0.50
2018-05-29T23:19:25.393Z,0.50
2018-05-29T23:21:28.761Z,0.70
2018-05-29T23:23:32.085Z,0.60
2018-05-29T23:25:35.409Z,0.50
2018-05-29T23:27:38.778Z,0.50
2018-05-29T23:29:42.143Z,0.50
2018-05-29T23:31:45.442Z,0.50
2018-05-29T23:33:48.765Z,0.60
2018-05-29T23:35:52.855Z,0.50
2018-05-29T23:37:56.226Z,0.50
2018-05-29T23:40:00.448Z,0.50
2018-05-29T23:42:03.962Z,0.50
2018-05-29T23:44:07.263Z,0.50
2018-05-29T23:46:10.855Z,0.50
2018-05-29T23:48:14.232Z,0.50
2018-05-29T23:50:17.572Z,0.50
2018-05-29T23:52:20.869Z,0.50
2018-05-29T23:54:24.195Z,0.50
2018-05-29T23:56:27.491Z,0.50
2018-05-29T23:58:30.823Z,0.50
